sensor_id;sensor_type;location;lat;lon;timestamp;P1;durP1;ratioP1;P2;durP2;ratioP2
42724;SDS011;28369;44.046;23.014;2022-11-06T00:00:16;44.03;;;29.33;;
42724;SDS011;28369;44.046;23.014;2022-11-06T00:02:43;37.83;;;29.48;;
42724;SDS011;28369;44.046;23.014;2022-11-06T00:05:10;41.42;;;27.30;;
42724;SDS011;28369;44.046;23.014;2022-11-06T00:07:54;40.58;;;26.23;;
42724;SDS011;28369;44.046;23.014;2022-11-06T00:10:20;51.25;;;27.45;;
42724;SDS011;28369;44.046;23.014;2022-11-06T00:12:45;41.55;;;26.67;;
42724;SDS011;28369;44.046;23.014;2022-11-06T00:15:11;38.47;;;26.20;;
42724;SDS011;28369;44.046;23.014;2022-11-06T00:17:37;40.78;;;27.35;;
42724;SDS011;28369;44.046;23.014;2022-11-06T00:20:03;45.90;;;26.42;;
42724;SDS011;28369;44.046;23.014;2022-11-06T00:22:33;39.08;;;25.98;;
42724;SDS011;28369;44.046;23.014;2022-11-06T00:24:59;45.08;;;26.38;;
42724;SDS011;28369;44.046;23.014;2022-11-06T00:27:25;39.60;;;26.35;;
42724;SDS011;28369;44.046;23.014;2022-11-06T00:29:51;35.50;;;25.40;;
42724;SDS011;28369;44.046;23.014;2022-11-06T00:32:16;39.33;;;25.88;;
42724;SDS011;28369;44.046;23.014;2022-11-06T00:34:42;35.10;;;26.38;;
42724;SDS011;28369;44.046;23.014;2022-11-06T00:37:07;40.03;;;25.95;;
42724;SDS011;28369;44.046;23.014;2022-11-06T00:39:33;44.78;;;26.70;;
42724;SDS011;28369;44.046;23.014;2022-11-06T00:41:58;39.35;;;26.48;;
42724;SDS011;28369;44.046;23.014;2022-11-06T00:44:24;33.45;;;24.92;;
42724;SDS011;28369;44.046;23.014;2022-11-06T00:46:49;36.25;;;25.67;;
42724;SDS011;28369;44.046;23.014;2022-11-06T00:49:15;48.20;;;25.83;;
42724;SDS011;28369;44.046;23.014;2022-11-06T00:51:40;34.38;;;24.38;;
42724;SDS011;28369;44.046;23.014;2022-11-06T00:54:08;40.42;;;25.20;;
42724;SDS011;28369;44.046;23.014;2022-11-06T00:56:35;37.05;;;23.90;;
42724;SDS011;28369;44.046;23.014;2022-11-06T00:59:01;37.47;;;25.75;;
42724;SDS011;28369;44.046;23.014;2022-11-06T01:01:32;38.58;;;25.02;;
42724;SDS011;28369;44.046;23.014;2022-11-06T01:04:01;42.60;;;25.48;;
42724;SDS011;28369;44.046;23.014;2022-11-06T01:06:30;34.20;;;25.52;;
42724;SDS011;28369;44.046;23.014;2022-11-06T01:08:57;35.72;;;24.50;;
42724;SDS011;28369;44.046;23.014;2022-11-06T01:11:27;33.13;;;24.65;;
42724;SDS011;28369;44.046;23.014;2022-11-06T01:13:54;36.25;;;26.02;;
42724;SDS011;28369;44.046;23.014;2022-11-06T01:16:21;36.72;;;25.13;;
42724;SDS011;28369;44.046;23.014;2022-11-06T01:18:48;38.45;;;25.35;;
42724;SDS011;28369;44.046;23.014;2022-11-06T01:21:15;35.53;;;25.42;;
42724;SDS011;28369;44.046;23.014;2022-11-06T01:23:45;39.90;;;25.13;;
42724;SDS011;28369;44.046;23.014;2022-11-06T01:26:12;35.63;;;24.98;;
42724;SDS011;28369;44.046;23.014;2022-11-06T01:28:39;38.10;;;26.35;;
42724;SDS011;28369;44.046;23.014;2022-11-06T01:31:07;38.38;;;25.70;;
42724;SDS011;28369;44.046;23.014;2022-11-06T01:33:34;36.53;;;25.83;;
42724;SDS011;28369;44.046;23.014;2022-11-06T01:36:00;35.25;;;25.48;;
42724;SDS011;28369;44.046;23.014;2022-11-06T01:38:26;43.83;;;27.13;;
42724;SDS011;28369;44.046;23.014;2022-11-06T01:40:51;34.83;;;25.42;;
42724;SDS011;28369;44.046;23.014;2022-11-06T01:45:52;33.85;;;25.67;;
42724;SDS011;28369;44.046;23.014;2022-11-06T01:48:20;34.85;;;24.92;;
42724;SDS011;28369;44.046;23.014;2022-11-06T01:50:54;42.20;;;24.63;;
42724;SDS011;28369;44.046;23.014;2022-11-06T01:53:22;40.92;;;25.42;;
42724;SDS011;28369;44.046;23.014;2022-11-06T01:55:50;41.13;;;24.83;;
42724;SDS011;28369;44.046;23.014;2022-11-06T01:58:32;36.30;;;25.13;;
42724;SDS011;28369;44.046;23.014;2022-11-06T02:01:00;36.60;;;24.80;;
42724;SDS011;28369;44.046;23.014;2022-11-06T02:03:27;35.78;;;24.67;;
42724;SDS011;28369;44.046;23.014;2022-11-06T02:05:52;35.30;;;25.02;;
42724;SDS011;28369;44.046;23.014;2022-11-06T02:08:20;36.72;;;25.23;;
42724;SDS011;28369;44.046;23.014;2022-11-06T02:10:47;37.67;;;25.45;;
42724;SDS011;28369;44.046;23.014;2022-11-06T02:27:24;42.78;;;24.77;;
42724;SDS011;28369;44.046;23.014;2022-11-06T02:32:28;44.75;;;24.75;;
42724;SDS011;28369;44.046;23.014;2022-11-06T02:35:00;41.45;;;24.83;;
42724;SDS011;28369;44.046;23.014;2022-11-06T02:37:31;38.22;;;24.73;;
42724;SDS011;28369;44.046;23.014;2022-11-06T02:40:02;31.80;;;24.52;;
42724;SDS011;28369;44.046;23.014;2022-11-06T02:42:31;39.05;;;25.30;;
42724;SDS011;28369;44.046;23.014;2022-11-06T02:44:59;35.45;;;24.55;;
42724;SDS011;28369;44.046;23.014;2022-11-06T02:47:27;39.72;;;25.00;;
42724;SDS011;28369;44.046;23.014;2022-11-06T02:49:58;33.63;;;24.05;;
42724;SDS011;28369;44.046;23.014;2022-11-06T02:52:31;36.90;;;25.05;;
42724;SDS011;28369;44.046;23.014;2022-11-06T02:55:06;35.90;;;24.98;;
42724;SDS011;28369;44.046;23.014;2022-11-06T02:57:36;34.63;;;24.77;;
42724;SDS011;28369;44.046;23.014;2022-11-06T03:00:09;37.58;;;24.73;;
42724;SDS011;28369;44.046;23.014;2022-11-06T03:02:48;41.13;;;25.83;;
42724;SDS011;28369;44.046;23.014;2022-11-06T03:08:12;39.67;;;24.40;;
42724;SDS011;28369;44.046;23.014;2022-11-06T03:11:20;32.20;;;23.83;;
42724;SDS011;28369;44.046;23.014;2022-11-06T03:22:20;37.88;;;25.77;;
42724;SDS011;28369;44.046;23.014;2022-11-06T03:25:27;39.45;;;23.80;;
42724;SDS011;28369;44.046;23.014;2022-11-06T03:28:04;40.83;;;24.90;;
42724;SDS011;28369;44.046;23.014;2022-11-06T03:30:31;40.75;;;25.77;;
42724;SDS011;28369;44.046;23.014;2022-11-06T03:33:08;41.03;;;26.60;;
42724;SDS011;28369;44.046;23.014;2022-11-06T03:35:42;39.40;;;25.73;;
42724;SDS011;28369;44.046;23.014;2022-11-06T03:38:13;45.95;;;26.48;;
42724;SDS011;28369;44.046;23.014;2022-11-06T03:40:44;39.03;;;25.80;;
42724;SDS011;28369;44.046;23.014;2022-11-06T03:43:15;46.93;;;26.47;;
42724;SDS011;28369;44.046;23.014;2022-11-06T03:45:43;37.17;;;25.73;;
42724;SDS011;28369;44.046;23.014;2022-11-06T03:53:21;37.27;;;26.23;;
42724;SDS011;28369;44.046;23.014;2022-11-06T03:55:54;36.28;;;25.02;;
42724;SDS011;28369;44.046;23.014;2022-11-06T03:58:27;43.85;;;26.98;;
42724;SDS011;28369;44.046;23.014;2022-11-06T04:06:01;42.80;;;26.52;;
42724;SDS011;28369;44.046;23.014;2022-11-06T04:08:33;38.22;;;24.80;;
42724;SDS011;28369;44.046;23.014;2022-11-06T04:11:19;39.92;;;25.58;;
42724;SDS011;28369;44.046;23.014;2022-11-06T04:14:06;41.05;;;26.23;;
42724;SDS011;28369;44.046;23.014;2022-11-06T04:16:44;36.88;;;26.63;;
42724;SDS011;28369;44.046;23.014;2022-11-06T04:19:15;43.25;;;28.00;;
42724;SDS011;28369;44.046;23.014;2022-11-06T04:21:47;38.72;;;26.48;;
42724;SDS011;28369;44.046;23.014;2022-11-06T04:35:20;39.28;;;26.70;;
42724;SDS011;28369;44.046;23.014;2022-11-06T04:38:08;38.60;;;27.65;;
42724;SDS011;28369;44.046;23.014;2022-11-06T04:46:07;39.08;;;26.83;;
42724;SDS011;28369;44.046;23.014;2022-11-06T04:48:37;44.03;;;26.73;;
42724;SDS011;28369;44.046;23.014;2022-11-06T04:51:05;44.17;;;25.52;;
42724;SDS011;28369;44.046;23.014;2022-11-06T04:53:34;41.20;;;27.17;;
42724;SDS011;28369;44.046;23.014;2022-11-06T04:56:11;42.00;;;26.67;;
42724;SDS011;28369;44.046;23.014;2022-11-06T04:58:37;40.15;;;26.50;;
42724;SDS011;28369;44.046;23.014;2022-11-06T05:01:03;41.55;;;26.60;;
42724;SDS011;28369;44.046;23.014;2022-11-06T05:03:29;33.90;;;25.63;;
42724;SDS011;28369;44.046;23.014;2022-11-06T05:05:55;40.35;;;27.27;;
42724;SDS011;28369;44.046;23.014;2022-11-06T05:08:20;40.30;;;25.77;;
42724;SDS011;28369;44.046;23.014;2022-11-06T05:10:46;47.80;;;26.65;;
42724;SDS011;28369;44.046;23.014;2022-11-06T05:13:12;45.70;;;26.67;;
42724;SDS011;28369;44.046;23.014;2022-11-06T05:15:38;40.95;;;25.92;;
42724;SDS011;28369;44.046;23.014;2022-11-06T05:18:04;56.78;;;27.20;;
42724;SDS011;28369;44.046;23.014;2022-11-06T05:20:30;35.85;;;25.20;;
42724;SDS011;28369;44.046;23.014;2022-11-06T05:22:55;43.97;;;27.33;;
42724;SDS011;28369;44.046;23.014;2022-11-06T05:25:31;37.75;;;25.98;;
42724;SDS011;28369;44.046;23.014;2022-11-06T05:27:59;37.17;;;25.92;;
42724;SDS011;28369;44.046;23.014;2022-11-06T05:30:26;44.40;;;25.60;;
42724;SDS011;28369;44.046;23.014;2022-11-06T05:32:52;43.72;;;26.60;;
42724;SDS011;28369;44.046;23.014;2022-11-06T05:35:18;49.90;;;26.30;;
42724;SDS011;28369;44.046;23.014;2022-11-06T05:37:44;41.95;;;26.13;;
42724;SDS011;28369;44.046;23.014;2022-11-06T05:40:11;40.03;;;25.38;;
42724;SDS011;28369;44.046;23.014;2022-11-06T05:42:38;39.22;;;25.40;;
42724;SDS011;28369;44.046;23.014;2022-11-06T05:45:04;41.47;;;26.02;;
42724;SDS011;28369;44.046;23.014;2022-11-06T05:47:31;40.72;;;26.63;;
42724;SDS011;28369;44.046;23.014;2022-11-06T05:49:56;39.05;;;25.67;;
42724;SDS011;28369;44.046;23.014;2022-11-06T05:52:22;43.60;;;27.20;;
42724;SDS011;28369;44.046;23.014;2022-11-06T05:54:47;45.35;;;26.30;;
42724;SDS011;28369;44.046;23.014;2022-11-06T05:57:13;38.28;;;25.23;;
42724;SDS011;28369;44.046;23.014;2022-11-06T05:59:39;40.40;;;26.55;;
42724;SDS011;28369;44.046;23.014;2022-11-06T06:02:04;44.22;;;26.20;;
42724;SDS011;28369;44.046;23.014;2022-11-06T06:04:30;39.60;;;26.33;;
42724;SDS011;28369;44.046;23.014;2022-11-06T06:06:55;38.17;;;25.48;;
42724;SDS011;28369;44.046;23.014;2022-11-06T06:09:21;36.55;;;25.65;;
42724;SDS011;28369;44.046;23.014;2022-11-06T06:11:50;43.22;;;26.75;;
42724;SDS011;28369;44.046;23.014;2022-11-06T06:14:16;37.88;;;26.58;;
42724;SDS011;28369;44.046;23.014;2022-11-06T06:16:43;36.85;;;25.95;;
42724;SDS011;28369;44.046;23.014;2022-11-06T06:19:08;42.55;;;25.20;;
42724;SDS011;28369;44.046;23.014;2022-11-06T06:21:34;53.00;;;27.98;;
42724;SDS011;28369;44.046;23.014;2022-11-06T06:24:00;37.92;;;27.00;;
42724;SDS011;28369;44.046;23.014;2022-11-06T06:26:26;37.13;;;25.63;;
42724;SDS011;28369;44.046;23.014;2022-11-06T06:28:52;43.30;;;25.98;;
42724;SDS011;28369;44.046;23.014;2022-11-06T06:31:17;41.35;;;26.05;;
42724;SDS011;28369;44.046;23.014;2022-11-06T06:33:43;41.35;;;25.83;;
42724;SDS011;28369;44.046;23.014;2022-11-06T06:36:08;42.78;;;27.27;;
42724;SDS011;28369;44.046;23.014;2022-11-06T06:38:34;45.70;;;27.17;;
42724;SDS011;28369;44.046;23.014;2022-11-06T06:41:03;41.50;;;25.42;;
42724;SDS011;28369;44.046;23.014;2022-11-06T06:43:30;42.83;;;27.47;;
42724;SDS011;28369;44.046;23.014;2022-11-06T06:45:56;40.30;;;26.80;;
42724;SDS011;28369;44.046;23.014;2022-11-06T06:48:26;48.03;;;27.95;;
42724;SDS011;28369;44.046;23.014;2022-11-06T06:50:55;45.45;;;26.80;;
42724;SDS011;28369;44.046;23.014;2022-11-06T06:53:21;45.55;;;28.00;;
42724;SDS011;28369;44.046;23.014;2022-11-06T06:55:47;39.97;;;26.45;;
42724;SDS011;28369;44.046;23.014;2022-11-06T06:58:13;45.35;;;28.90;;
42724;SDS011;28369;44.046;23.014;2022-11-06T07:00:38;47.75;;;28.63;;
42724;SDS011;28369;44.046;23.014;2022-11-06T07:03:04;50.35;;;28.98;;
42724;SDS011;28369;44.046;23.014;2022-11-06T07:05:29;47.05;;;28.40;;
42724;SDS011;28369;44.046;23.014;2022-11-06T07:07:55;46.50;;;28.05;;
42724;SDS011;28369;44.046;23.014;2022-11-06T07:10:21;43.55;;;27.35;;
42724;SDS011;28369;44.046;23.014;2022-11-06T07:12:46;42.72;;;27.88;;
42724;SDS011;28369;44.046;23.014;2022-11-06T07:15:12;40.08;;;27.38;;
42724;SDS011;28369;44.046;23.014;2022-11-06T07:17:37;42.03;;;27.10;;
42724;SDS011;28369;44.046;23.014;2022-11-06T07:20:03;37.88;;;26.38;;
42724;SDS011;28369;44.046;23.014;2022-11-06T07:22:29;41.45;;;26.50;;
42724;SDS011;28369;44.046;23.014;2022-11-06T07:24:55;45.55;;;26.23;;
42724;SDS011;28369;44.046;23.014;2022-11-06T07:27:20;45.42;;;25.65;;
42724;SDS011;28369;44.046;23.014;2022-11-06T07:29:45;46.22;;;26.63;;
42724;SDS011;28369;44.046;23.014;2022-11-06T07:32:11;44.05;;;29.17;;
42724;SDS011;28369;44.046;23.014;2022-11-06T07:34:36;58.13;;;32.45;;
42724;SDS011;28369;44.046;23.014;2022-11-06T07:37:06;42.70;;;26.90;;
42724;SDS011;28369;44.046;23.014;2022-11-06T07:39:32;38.97;;;26.67;;
42724;SDS011;28369;44.046;23.014;2022-11-06T07:41:57;48.40;;;29.15;;
42724;SDS011;28369;44.046;23.014;2022-11-06T07:44:23;53.10;;;31.30;;
42724;SDS011;28369;44.046;23.014;2022-11-06T07:46:48;46.80;;;29.33;;
42724;SDS011;28369;44.046;23.014;2022-11-06T07:49:14;45.20;;;28.50;;
42724;SDS011;28369;44.046;23.014;2022-11-06T07:51:42;39.15;;;24.08;;
42724;SDS011;28369;44.046;23.014;2022-11-06T07:54:09;54.20;;;30.88;;
42724;SDS011;28369;44.046;23.014;2022-11-06T07:56:35;43.50;;;27.17;;
42724;SDS011;28369;44.046;23.014;2022-11-06T07:59:01;47.67;;;28.60;;
42724;SDS011;28369;44.046;23.014;2022-11-06T08:01:26;45.08;;;27.27;;
42724;SDS011;28369;44.046;23.014;2022-11-06T08:03:52;41.22;;;27.02;;
42724;SDS011;28369;44.046;23.014;2022-11-06T08:06:17;41.38;;;27.17;;
42724;SDS011;28369;44.046;23.014;2022-11-06T08:08:43;40.88;;;25.35;;
42724;SDS011;28369;44.046;23.014;2022-11-06T08:11:09;39.22;;;25.67;;
42724;SDS011;28369;44.046;23.014;2022-11-06T08:13:35;37.55;;;26.60;;
42724;SDS011;28369;44.046;23.014;2022-11-06T08:18:32;46.22;;;26.50;;
42724;SDS011;28369;44.046;23.014;2022-11-06T08:20:57;43.83;;;26.08;;
42724;SDS011;28369;44.046;23.014;2022-11-06T08:23:23;37.40;;;23.92;;
42724;SDS011;28369;44.046;23.014;2022-11-06T08:25:51;44.67;;;27.27;;
42724;SDS011;28369;44.046;23.014;2022-11-06T08:28:19;37.90;;;26.42;;
42724;SDS011;28369;44.046;23.014;2022-11-06T08:30:45;36.25;;;24.60;;
42724;SDS011;28369;44.046;23.014;2022-11-06T08:33:10;34.92;;;24.48;;
42724;SDS011;28369;44.046;23.014;2022-11-06T08:35:36;49.85;;;27.08;;
42724;SDS011;28369;44.046;23.014;2022-11-06T08:38:01;41.60;;;24.90;;
42724;SDS011;28369;44.046;23.014;2022-11-06T08:40:27;37.63;;;24.73;;
42724;SDS011;28369;44.046;23.014;2022-11-06T08:42:57;33.10;;;23.38;;
42724;SDS011;28369;44.046;23.014;2022-11-06T08:45:26;42.25;;;25.80;;
42724;SDS011;28369;44.046;23.014;2022-11-06T08:47:52;45.58;;;23.48;;
42724;SDS011;28369;44.046;23.014;2022-11-06T08:50:17;36.08;;;24.48;;
42724;SDS011;28369;44.046;23.014;2022-11-06T08:52:43;35.67;;;23.00;;
42724;SDS011;28369;44.046;23.014;2022-11-06T08:55:08;33.80;;;21.52;;
42724;SDS011;28369;44.046;23.014;2022-11-06T08:57:34;35.30;;;22.38;;
42724;SDS011;28369;44.046;23.014;2022-11-06T09:00:00;41.60;;;24.52;;
42724;SDS011;28369;44.046;23.014;2022-11-06T09:02:25;33.42;;;21.13;;
42724;SDS011;28369;44.046;23.014;2022-11-06T09:04:51;34.20;;;23.48;;
42724;SDS011;28369;44.046;23.014;2022-11-06T09:07:16;34.13;;;22.50;;
42724;SDS011;28369;44.046;23.014;2022-11-06T09:09:42;34.78;;;22.55;;
42724;SDS011;28369;44.046;23.014;2022-11-06T09:12:07;34.15;;;22.05;;
42724;SDS011;28369;44.046;23.014;2022-11-06T09:14:33;34.47;;;22.00;;
42724;SDS011;28369;44.046;23.014;2022-11-06T09:16:59;33.22;;;21.63;;
42724;SDS011;28369;44.046;23.014;2022-11-06T09:19:24;38.90;;;22.52;;
42724;SDS011;28369;44.046;23.014;2022-11-06T09:21:50;43.13;;;22.60;;
42724;SDS011;28369;44.046;23.014;2022-11-06T09:24:15;33.05;;;21.52;;
42724;SDS011;28369;44.046;23.014;2022-11-06T09:26:41;30.88;;;20.67;;
42724;SDS011;28369;44.046;23.014;2022-11-06T09:29:06;34.65;;;21.85;;
42724;SDS011;28369;44.046;23.014;2022-11-06T09:31:32;37.05;;;22.40;;
42724;SDS011;28369;44.046;23.014;2022-11-06T09:33:57;32.95;;;21.40;;
42724;SDS011;28369;44.046;23.014;2022-11-06T09:36:23;36.55;;;22.30;;
42724;SDS011;28369;44.046;23.014;2022-11-06T09:38:48;35.55;;;22.55;;
42724;SDS011;28369;44.046;23.014;2022-11-06T09:41:17;35.75;;;20.65;;
42724;SDS011;28369;44.046;23.014;2022-11-06T09:46:49;33.30;;;19.95;;
42724;SDS011;28369;44.046;23.014;2022-11-06T09:51:55;32.13;;;20.40;;
42724;SDS011;28369;44.046;23.014;2022-11-06T09:54:37;32.03;;;19.25;;
42724;SDS011;28369;44.046;23.014;2022-11-06T09:57:26;33.60;;;19.77;;
42724;SDS011;28369;44.046;23.014;2022-11-06T09:59:57;33.20;;;20.02;;
42724;SDS011;28369;44.046;23.014;2022-11-06T10:02:26;33.88;;;20.17;;
42724;SDS011;28369;44.046;23.014;2022-11-06T10:05:01;29.38;;;19.02;;
42724;SDS011;28369;44.046;23.014;2022-11-06T10:07:30;36.92;;;21.35;;
42724;SDS011;28369;44.046;23.014;2022-11-06T10:09:59;38.72;;;23.08;;
42724;SDS011;28369;44.046;23.014;2022-11-06T10:20:31;42.45;;;27.48;;
42724;SDS011;28369;44.046;23.014;2022-11-06T10:28:33;58.05;;;28.60;;
42724;SDS011;28369;44.046;23.014;2022-11-06T10:31:36;40.97;;;28.40;;
42724;SDS011;28369;44.046;23.014;2022-11-06T10:34:20;43.75;;;26.10;;
42724;SDS011;28369;44.046;23.014;2022-11-06T10:36:53;44.72;;;27.40;;
42724;SDS011;28369;44.046;23.014;2022-11-06T10:39:28;40.13;;;27.75;;
42724;SDS011;28369;44.046;23.014;2022-11-06T10:42:15;38.17;;;23.65;;
42724;SDS011;28369;44.046;23.014;2022-11-06T10:44:47;36.40;;;26.05;;
42724;SDS011;28369;44.046;23.014;2022-11-06T10:47:15;48.53;;;31.77;;
42724;SDS011;28369;44.046;23.014;2022-11-06T10:49:48;43.90;;;26.17;;
42724;SDS011;28369;44.046;23.014;2022-11-06T11:00:33;42.38;;;23.83;;
42724;SDS011;28369;44.046;23.014;2022-11-06T11:03:00;36.45;;;22.90;;
42724;SDS011;28369;44.046;23.014;2022-11-06T11:05:38;32.33;;;23.58;;
42724;SDS011;28369;44.046;23.014;2022-11-06T11:08:05;38.28;;;22.17;;
42724;SDS011;28369;44.046;23.014;2022-11-06T11:10:51;34.92;;;22.30;;
42724;SDS011;28369;44.046;23.014;2022-11-06T11:13:18;38.70;;;22.00;;
42724;SDS011;28369;44.046;23.014;2022-11-06T11:15:46;36.35;;;22.88;;
42724;SDS011;28369;44.046;23.014;2022-11-06T11:18:26;36.22;;;21.60;;
42724;SDS011;28369;44.046;23.014;2022-11-06T11:21:05;30.65;;;20.90;;
42724;SDS011;28369;44.046;23.014;2022-11-06T11:23:38;46.90;;;32.63;;
42724;SDS011;28369;44.046;23.014;2022-11-06T11:26:22;36.95;;;21.70;;
42724;SDS011;28369;44.046;23.014;2022-11-06T11:28:55;37.13;;;21.10;;
42724;SDS011;28369;44.046;23.014;2022-11-06T11:31:29;31.55;;;21.25;;
42724;SDS011;28369;44.046;23.014;2022-11-06T11:33:58;33.22;;;21.35;;
42724;SDS011;28369;44.046;23.014;2022-11-06T11:36:45;28.08;;;20.35;;
42724;SDS011;28369;44.046;23.014;2022-11-06T11:39:33;36.13;;;21.88;;
42724;SDS011;28369;44.046;23.014;2022-11-06T11:42:15;30.13;;;20.63;;
42724;SDS011;28369;44.046;23.014;2022-11-06T11:45:34;39.20;;;21.65;;
42724;SDS011;28369;44.046;23.014;2022-11-06T11:47:46;35.00;;;21.00;;
42724;SDS011;28369;44.046;23.014;2022-11-06T11:52:41;29.30;;;19.85;;
42724;SDS011;28369;44.046;23.014;2022-11-06T11:55:21;35.00;;;20.23;;
42724;SDS011;28369;44.046;23.014;2022-11-06T11:57:52;32.72;;;19.70;;
42724;SDS011;28369;44.046;23.014;2022-11-06T12:00:21;30.00;;;19.48;;
42724;SDS011;28369;44.046;23.014;2022-11-06T12:05:23;31.80;;;19.75;;
42724;SDS011;28369;44.046;23.014;2022-11-06T12:07:52;31.50;;;19.67;;
42724;SDS011;28369;44.046;23.014;2022-11-06T12:10:25;31.35;;;19.98;;
42724;SDS011;28369;44.046;23.014;2022-11-06T12:12:53;34.63;;;20.55;;
42724;SDS011;28369;44.046;23.014;2022-11-06T12:15:23;34.35;;;20.40;;
42724;SDS011;28369;44.046;23.014;2022-11-06T12:17:54;32.28;;;20.25;;
42724;SDS011;28369;44.046;23.014;2022-11-06T12:20:25;30.42;;;19.15;;
42724;SDS011;28369;44.046;23.014;2022-11-06T12:23:10;42.83;;;20.52;;
42724;SDS011;28369;44.046;23.014;2022-11-06T12:25:40;30.70;;;20.40;;
42724;SDS011;28369;44.046;23.014;2022-11-06T12:28:12;39.65;;;21.88;;
42724;SDS011;28369;44.046;23.014;2022-11-06T12:30:41;40.33;;;20.52;;
42724;SDS011;28369;44.046;23.014;2022-11-06T12:35:54;30.90;;;19.92;;
42724;SDS011;28369;44.046;23.014;2022-11-06T12:38:38;34.58;;;18.92;;
42724;SDS011;28369;44.046;23.014;2022-11-06T12:41:20;33.47;;;20.38;;
42724;SDS011;28369;44.046;23.014;2022-11-06T12:43:50;34.47;;;19.70;;
42724;SDS011;28369;44.046;23.014;2022-11-06T12:49:13;34.65;;;19.65;;
42724;SDS011;28369;44.046;23.014;2022-11-06T13:04:57;35.35;;;23.25;;
42724;SDS011;28369;44.046;23.014;2022-11-06T13:16:15;47.70;;;28.13;;
42724;SDS011;28369;44.046;23.014;2022-11-06T13:18:51;46.20;;;29.10;;
42724;SDS011;28369;44.046;23.014;2022-11-06T13:21:24;42.72;;;29.42;;
42724;SDS011;28369;44.046;23.014;2022-11-06T13:24:09;40.67;;;29.00;;
42724;SDS011;28369;44.046;23.014;2022-11-06T13:26:41;50.33;;;30.60;;
42724;SDS011;28369;44.046;23.014;2022-11-06T13:29:13;48.08;;;31.80;;
42724;SDS011;28369;44.046;23.014;2022-11-06T13:31:53;45.42;;;32.95;;
42724;SDS011;28369;44.046;23.014;2022-11-06T13:34:23;47.28;;;33.08;;
42724;SDS011;28369;44.046;23.014;2022-11-06T13:39:21;46.90;;;32.63;;
42724;SDS011;28369;44.046;23.014;2022-11-06T13:41:48;47.78;;;33.15;;
42724;SDS011;28369;44.046;23.014;2022-11-06T13:44:16;52.95;;;35.90;;
42724;SDS011;28369;44.046;23.014;2022-11-06T13:49:43;47.58;;;35.33;;
42724;SDS011;28369;44.046;23.014;2022-11-06T14:08:13;63.00;;;42.45;;
42724;SDS011;28369;44.046;23.014;2022-11-06T14:10:51;63.38;;;44.97;;
42724;SDS011;28369;44.046;23.014;2022-11-06T14:13:22;63.72;;;46.08;;
42724;SDS011;28369;44.046;23.014;2022-11-06T14:15:57;65.15;;;45.85;;
42724;SDS011;28369;44.046;23.014;2022-11-06T14:18:24;69.45;;;49.47;;
42724;SDS011;28369;44.046;23.014;2022-11-06T14:20:51;75.80;;;48.85;;
42724;SDS011;28369;44.046;23.014;2022-11-06T14:23:54;69.53;;;49.97;;
42724;SDS011;28369;44.046;23.014;2022-11-06T14:26:42;74.55;;;52.72;;
42724;SDS011;28369;44.046;23.014;2022-11-06T14:32:03;74.10;;;53.93;;
42724;SDS011;28369;44.046;23.014;2022-11-06T14:34:48;90.78;;;58.70;;
42724;SDS011;28369;44.046;23.014;2022-11-06T14:44:49;87.82;;;58.08;;
42724;SDS011;28369;44.046;23.014;2022-11-06T14:47:25;75.55;;;54.30;;
42724;SDS011;28369;44.046;23.014;2022-11-06T14:49:55;73.90;;;53.47;;
42724;SDS011;28369;44.046;23.014;2022-11-06T14:52:24;77.32;;;55.20;;
42724;SDS011;28369;44.046;23.014;2022-11-06T14:54:58;70.75;;;50.55;;
42724;SDS011;28369;44.046;23.014;2022-11-06T14:57:34;74.43;;;51.10;;
42724;SDS011;28369;44.046;23.014;2022-11-06T15:00:02;76.63;;;55.15;;
42724;SDS011;28369;44.046;23.014;2022-11-06T15:02:28;93.75;;;65.25;;
42724;SDS011;28369;44.046;23.014;2022-11-06T15:05:01;75.95;;;50.33;;
42724;SDS011;28369;44.046;23.014;2022-11-06T15:10:04;68.88;;;51.60;;
42724;SDS011;28369;44.046;23.014;2022-11-06T15:13:09;74.85;;;51.60;;
42724;SDS011;28369;44.046;23.014;2022-11-06T15:15:41;74.80;;;51.75;;
42724;SDS011;28369;44.046;23.014;2022-11-06T15:18:09;72.82;;;53.30;;
42724;SDS011;28369;44.046;23.014;2022-11-06T15:20:37;77.72;;;55.08;;
42724;SDS011;28369;44.046;23.014;2022-11-06T15:23:14;87.47;;;59.35;;
42724;SDS011;28369;44.046;23.014;2022-11-06T15:28:26;89.57;;;58.28;;
42724;SDS011;28369;44.046;23.014;2022-11-06T15:33:26;89.40;;;58.35;;
42724;SDS011;28369;44.046;23.014;2022-11-06T15:35:57;83.70;;;58.78;;
42724;SDS011;28369;44.046;23.014;2022-11-06T15:38:35;87.18;;;56.60;;
42724;SDS011;28369;44.046;23.014;2022-11-06T15:41:02;87.45;;;59.92;;
42724;SDS011;28369;44.046;23.014;2022-11-06T15:43:34;96.22;;;59.03;;
42724;SDS011;28369;44.046;23.014;2022-11-06T15:48:30;89.28;;;62.50;;
42724;SDS011;28369;44.046;23.014;2022-11-06T15:50:55;101.43;;;66.80;;
42724;SDS011;28369;44.046;23.014;2022-11-06T15:53:22;106.35;;;71.75;;
42724;SDS011;28369;44.046;23.014;2022-11-06T15:58:28;112.72;;;77.70;;
42724;SDS011;28369;44.046;23.014;2022-11-06T16:00:54;123.60;;;79.75;;
42724;SDS011;28369;44.046;23.014;2022-11-06T16:03:20;131.60;;;80.05;;
42724;SDS011;28369;44.046;23.014;2022-11-06T16:05:51;118.32;;;78.88;;
42724;SDS011;28369;44.046;23.014;2022-11-06T16:08:19;120.30;;;79.47;;
42724;SDS011;28369;44.046;23.014;2022-11-06T16:10:47;115.43;;;78.28;;
42724;SDS011;28369;44.046;23.014;2022-11-06T16:13:14;113.35;;;76.28;;
42724;SDS011;28369;44.046;23.014;2022-11-06T16:23:16;127.20;;;80.20;;
42724;SDS011;28369;44.046;23.014;2022-11-06T16:25:45;135.02;;;84.97;;
42724;SDS011;28369;44.046;23.014;2022-11-06T16:28:18;123.32;;;83.35;;
42724;SDS011;28369;44.046;23.014;2022-11-06T16:30:46;132.82;;;85.63;;
42724;SDS011;28369;44.046;23.014;2022-11-06T16:33:21;133.43;;;88.45;;
42724;SDS011;28369;44.046;23.014;2022-11-06T16:35:48;133.38;;;90.18;;
42724;SDS011;28369;44.046;23.014;2022-11-06T16:40:50;145.10;;;89.80;;
42724;SDS011;28369;44.046;23.014;2022-11-06T16:43:17;146.90;;;93.10;;
42724;SDS011;28369;44.046;23.014;2022-11-06T16:45:58;148.27;;;91.22;;
42724;SDS011;28369;44.046;23.014;2022-11-06T16:48:38;152.25;;;95.28;;
42724;SDS011;28369;44.046;23.014;2022-11-06T16:53:55;150.82;;;96.82;;
42724;SDS011;28369;44.046;23.014;2022-11-06T16:56:26;147.70;;;96.68;;
42724;SDS011;28369;44.046;23.014;2022-11-06T16:59:07;167.82;;;102.13;;
42724;SDS011;28369;44.046;23.014;2022-11-06T17:01:39;145.73;;;97.97;;
42724;SDS011;28369;44.046;23.014;2022-11-06T17:04:10;155.07;;;95.70;;
42724;SDS011;28369;44.046;23.014;2022-11-06T17:06:44;155.50;;;98.05;;
42724;SDS011;28369;44.046;23.014;2022-11-06T17:11:51;164.35;;;103.45;;
42724;SDS011;28369;44.046;23.014;2022-11-06T17:14:18;171.43;;;103.15;;
42724;SDS011;28369;44.046;23.014;2022-11-06T17:16:49;178.52;;;108.90;;
42724;SDS011;28369;44.046;23.014;2022-11-06T17:19:17;182.32;;;108.93;;
42724;SDS011;28369;44.046;23.014;2022-11-06T17:21:44;207.10;;;124.43;;
42724;SDS011;28369;44.046;23.014;2022-11-06T17:24:10;180.48;;;114.38;;